Time;durP1;ratioP1;P1;durP2;ratioP2;P2;SDS_P1;SDS_P2;PMS_P1;PMS_P2;Temp;Humidity;BMP_temperature;BMP_pressure;BME280_temperature;BME280_humidity;BME280_pressure;Samples;Min_cycle;Max_cycle;Signal;HPM_P1;HPM_P2
2022/08/01 00:00:35;;;;;;;3.70;2.10;;;;;;;15.54;83.24;99990.72;105965;1275;25906;-74
2022/08/01 00:03:02;;;;;;;5.10;1.90;;;;;;;15.53;83.32;99992.18;105959;1275;22557;-80
2022/08/01 00:05:29;;;;;;;3.40;1.90;;;;;;;15.55;83.38;99989.27;105870;1275;23934;-77
2022/08/01 00:07:56;;;;;;;3.30;2.40;;;;;;;15.53;83.41;99993.42;105899;1274;25485;-77
2022/08/01 00:10:24;;;;;;;2.30;2.10;;;;;;;15.48;83.48;99989.31;105794;1273;24424;-75
2022/08/01 00:12:51;;;;;;;2.50;2.00;;;;;;;15.45;83.58;99986.59;105751;1278;22538;-77
2022/08/01 00:15:17;;;;;;;3.60;2.00;;;;;;;15.40;83.57;99982.35;105750;1274;22558;-81
2022/08/01 00:17:45;;;;;;;4.90;2.20;;;;;;;15.37;83.93;99981.37;105994;1273;24336;-77
2022/08/01 00:20:13;;;;;;;4.00;3.00;;;;;;;15.38;83.80;99979.05;105797;1276;24882;-81
2022/08/01 00:22:40;;;;;;;5.10;2.50;;;;;;;15.36;83.77;99975.37;105963;1273;22625;-72
2022/08/01 00:25:07;;;;;;;4.40;1.90;;;;;;;15.32;83.81;99972.32;105943;1275;24211;-79
2022/08/01 00:27:34;;;;;;;3.40;2.00;;;;;;;15.27;83.79;99969.33;106094;1273;22541;-76
2022/08/01 00:30:04;;;;;;;3.90;2.00;;;;;;;15.24;84.19;99970.83;106146;1273;25560;-76
2022/08/01 00:32:39;;;;;;;5.40;2.30;;;;;;;15.22;84.06;99966.48;106031;1273;22607;-74
2022/08/01 00:35:07;;;;;;;8.30;2.20;;;;;;;15.23;84.21;99964.30;106051;1273;22546;-74
2022/08/01 00:37:33;;;;;;;5.00;2.00;;;;;;;15.24;84.16;99963.75;106001;1275;25222;-73
2022/08/01 00:40:00;;;;;;;3.50;2.00;;;;;;;15.25;84.30;99963.52;105812;1278;24300;-74
2022/08/01 00:42:27;;;;;;;5.10;1.90;;;;;;;15.25;84.22;99961.42;105941;1274;22685;-80
2022/08/01 00:44:54;;;;;;;7.60;1.90;;;;;;;15.25;84.23;99964.07;105914;1275;22611;-74
2022/08/01 00:47:21;;;;;;;6.00;2.50;;;;;;;15.25;84.15;99960.88;106025;1274;22537;-79
2022/08/01 00:49:47;;;;;;;6.10;2.40;;;;;;;15.28;84.33;99961.28;105946;1274;22567;-73
2022/08/01 00:52:15;;;;;;;10.50;2.20;;;;;;;15.26;84.11;99963.84;105912;1274;24804;-77
2022/08/01 00:54:42;;;;;;;8.10;1.90;;;;;;;15.26;84.25;99961.19;105939;1274;22551;-80
2022/08/01 00:57:10;;;;;;;4.50;2.10;;;;;;;15.30;84.22;99961.75;106022;1274;25357;-79
2022/08/01 00:59:38;;;;;;;3.30;2.10;;;;;;;15.30;84.08;99962.82;106060;1274;22544;-80
2022/08/01 01:02:07;;;;;;;3.50;2.00;;;;;;;15.28;84.01;99959.68;106199;1274;25359;-78
2022/08/01 01:04:42;;;;;;;2.80;2.00;;;;;;;15.29;83.99;99968.88;105992;1274;25279;-81
2022/08/01 01:07:34;;;;;;;4.40;2.20;;;;;;;15.30;83.97;99967.96;106210;1274;25253;-79
2022/08/01 01:10:16;;;;;;;3.50;2.00;;;;;;;15.26;83.94;99972.00;106277;1274;24259;-81
2022/08/01 01:12:55;;;;;;;3.90;1.80;;;;;;;15.20;83.78;99973.63;106006;1274;22548;-79
2022/08/01 01:15:41;;;;;;;5.60;2.40;;;;;;;15.18;84.22;99973.69;106006;1274;22557;-81
2022/08/01 01:18:20;;;;;;;4.00;2.10;;;;;;;15.18;84.27;99970.16;106063;1275;25253;-78
2022/08/01 01:20:58;;;;;;;3.20;2.00;;;;;;;15.17;84.30;99969.31;106026;1274;25306;-78
2022/08/01 01:23:41;;;;;;;3.50;2.20;;;;;;;15.16;84.26;99967.74;105957;1274;25253;-77
2022/08/01 01:26:28;;;;;;;4.20;2.10;;;;;;;15.13;84.06;99965.19;106065;1275;24421;-78
2022/08/01 01:29:17;;;;;;;7.10;2.10;;;;;;;15.11;84.18;99967.55;105998;1274;22534;-78
2022/08/01 01:31:55;;;;;;;3.50;2.10;;;;;;;15.12;84.21;99966.11;105997;1275;25447;-78
2022/08/01 01:34:23;;;;;;;2.60;2.10;;;;;;;15.12;84.05;99964.87;106013;1274;23985;-78
2022/08/01 01:36:54;;;;;;;4.10;2.20;;;;;;;15.09;83.99;99969.20;106061;1274;22583;-72
2022/08/01 01:39:24;;;;;;;6.60;2.80;;;;;;;15.09;84.09;99971.17;105987;1274;25258;-76
2022/08/01 01:41:54;;;;;;;3.90;2.10;;;;;;;15.10;84.10;99972.56;106072;1274;24264;-80
2022/08/01 01:44:21;;;;;;;8.80;2.30;;;;;;;15.07;83.93;99967.33;105994;1274;22531;-80
2022/08/01 01:46:51;;;;;;;3.50;2.10;;;;;;;15.04;83.83;99971.70;105942;1274;25329;-74
2022/08/01 01:49:23;;;;;;;8.70;2.60;;;;;;;14.99;83.79;99970.47;105962;1274;22556;-76
2022/08/01 01:51:53;;;;;;;4.60;2.00;;;;;;;14.96;84.02;99967.90;105791;1276;24727;-80
2022/08/01 01:54:33;;;;;;;3.10;2.40;;;;;;;14.96;84.07;99970.21;105934;1275;22626;-75
2022/08/01 01:57:03;;;;;;;3.40;1.80;;;;;;;14.94;84.11;99972.76;105898;1275;25368;-75
2022/08/01 01:59:34;;;;;;;3.70;2.00;;;;;;;14.91;83.85;99973.00;105807;1277;25258;-75
2022/08/01 02:02:04;;;;;;;7.20;1.90;;;;;;;14.90;84.14;99968.80;105846;1274;24453;-75
2022/08/01 02:04:37;;;;;;;6.20;1.90;;;;;;;14.90;83.93;99967.89;105917;1274;25473;-72
2022/08/01 02:07:08;;;;;;;4.00;2.20;;;;;;;14.88;84.13;99961.95;105900;1274;24291;-75
2022/08/01 02:09:37;;;;;;;5.30;2.20;;;;;;;14.87;83.84;99959.67;105966;1274;25334;-76
2022/08/01 02:12:06;;;;;;;4.70;2.10;;;;;;;14.85;83.74;99961.33;105523;1277;22525;-73
2022/08/01 02:14:35;;;;;;;6.60;2.30;;;;;;;14.84;83.94;99962.59;105470;1278;25221;-74
2022/08/01 02:17:05;;;;;;;6.90;2.50;;;;;;;14.83;83.70;99966.01;105590;1278;22647;-75
2022/08/01 02:19:34;;;;;;;3.40;2.30;;;;;;;14.81;83.80;99967.83;105451;1278;22602;-77
2022/08/01 02:22:11;;;;;;;5.00;2.20;;;;;;;14.78;83.76;99962.60;105549;1279;24582;-76
2022/08/01 02:24:54;;;;;;;5.50;2.40;;;;;;;14.80;84.12;99955.84;105408;1281;22678;-77
2022/08/01 02:27:28;;;;;;;4.30;2.00;;;;;;;14.80;83.82;99956.36;105524;1281;22620;-77
2022/08/01 02:30:04;;;;;;;3.30;2.10;;;;;;;14.76;83.92;99962.67;105496;1274;22818;-75
2022/08/01 02:36:21;;;;;;;5.20;2.00;;;;;;;14.60;83.84;99961.05;105359;1274;24476;-77
2022/08/01 02:39:01;;;;;;;3.60;2.20;;;;;;;14.56;84.02;99961.36;105790;1274;23337;-75
2022/08/01 02:41:31;;;;;;;7.70;2.50;;;;;;;14.56;84.00;99966.67;105567;1278;24037;-73
2022/08/01 02:44:01;;;;;;;3.90;2.40;;;;;;;14.55;84.19;99966.71;105627;1277;23208;-76
2022/08/01 02:46:39;;;;;;;2.50;1.90;;;;;;;14.58;84.22;99969.11;105582;1277;25369;-75
2022/08/01 02:49:09;;;;;;;3.70;1.80;;;;;;;14.54;83.89;99968.71;105621;1278;25504;-75
2022/08/01 02:51:39;;;;;;;5.10;2.00;;;;;;;14.49;83.94;99965.32;105705;1277;22534;-74
2022/08/01 02:54:08;;;;;;;3.00;2.20;;;;;;;14.48;83.94;99968.55;105727;1278;24259;-75
2022/08/01 02:56:37;;;;;;;4.00;2.30;;;;;;;14.47;83.97;99971.39;105717;1277;22506;-71
2022/08/01 02:59:09;;;;;;;6.70;2.10;;;;;;;14.43;83.88;99974.52;105942;1275;22625;-73
2022/08/01 03:01:41;;;;;;;4.80;1.80;;;;;;;14.44;84.13;99972.20;105904;1274;25410;-73
2022/08/01 03:04:11;;;;;;;3.00;1.90;;;;;;;14.41;83.88;99976.39;105856;1275;22561;-75
2022/08/01 03:06:39;;;;;;;6.70;2.70;;;;;;;14.41;84.06;99977.63;105913;1277;22557;-76
2022/08/01 03:09:11;;;;;;;3.00;2.00;;;;;;;14.36;84.08;99977.59;105979;1276;24073;-73
2022/08/01 03:11:42;;;;;;;5.50;2.40;;;;;;;14.32;84.29;99978.77;105761;1275;25356;-72
2022/08/01 03:14:12;;;;;;;5.30;2.40;;;;;;;14.37;84.38;99978.10;106086;1274;24269;-74
2022/08/01 03:16:43;;;;;;;4.70;2.00;;;;;;;14.35;84.11;99984.53;105988;1274;22532;-74
2022/08/01 03:19:11;;;;;;;4.90;2.30;;;;;;;14.31;84.06;99982.70;105870;1275;25349;-76
2022/08/01 03:21:40;;;;;;;8.10;2.30;;;;;;;14.32;84.38;99982.33;105903;1274;24262;-75
2022/08/01 03:24:09;;;;;;;9.30;2.90;;;;;;;14.29;84.10;99976.76;105778;1275;25371;-75
2022/08/01 03:26:39;;;;;;;7.10;2.90;;;;;;;14.22;84.18;99974.28;105824;1274;25252;-76
2022/08/01 03:29:12;;;;;;;6.20;2.20;;;;;;;14.23;84.36;99976.92;106033;1275;26605;-73
2022/08/01 03:31:43;;;;;;;7.30;2.40;;;;;;;14.25;84.63;99976.88;105707;1278;22540;-80
2022/08/01 03:34:10;;;;;;;7.30;2.30;;;;;;;14.26;84.44;99981.08;105628;1278;25450;-77
2022/08/01 03:36:46;;;;;;;4.50;2.20;;;;;;;14.23;84.27;99985.41;105613;1278;23952;-74
2022/08/01 03:39:17;;;;;;;7.00;2.70;;;;;;;14.22;84.63;99990.95;105507;1278;25251;-76
2022/08/01 03:41:54;;;;;;;2.70;2.30;;;;;;;14.21;84.46;99991.69;105637;1278;22659;-74
2022/08/01 03:44:28;;;;;;;3.70;2.30;;;;;;;14.20;84.67;99994.54;105631;1277;25416;-73
2022/08/01 03:47:06;;;;;;;4.90;2.30;;;;;;;14.20;84.67;99995.61;105631;1278;22608;-73
2022/08/01 03:49:37;;;;;;;3.80;2.30;;;;;;;14.19;84.54;99997.94;105833;1274;22662;-77
2022/08/01 03:52:07;;;;;;;5.70;2.40;;;;;;;14.21;84.74;99997.89;105821;1274;22545;-75
2022/08/01 03:54:43;;;;;;;4.40;2.80;;;;;;;14.21;84.59;99999.30;105989;1274;22550;-75
2022/08/01 03:57:10;;;;;;;8.10;2.80;;;;;;;14.26;84.86;100003.05;105927;1274;25503;-81
2022/08/01 03:59:58;;;;;;;4.50;2.60;;;;;;;14.27;84.61;100000.34;105905;1274;22733;-77
2022/08/01 04:02:27;;;;;;;5.20;2.60;;;;;;;14.28;84.67;100008.11;105521;1277;22580;-77
2022/08/01 04:04:54;;;;;;;7.50;2.40;;;;;;;14.28;84.69;100007.42;105576;1279;22708;-75
2022/08/01 04:07:26;;;;;;;6.10;2.80;;;;;;;14.30;84.59;100007.54;105613;1279;23935;-72
2022/08/01 04:09:54;;;;;;;8.40;2.80;;;;;;;14.33;84.58;100012.92;104670;1287;22638;-73
2022/08/01 04:12:22;;;;;;;4.70;2.90;;;;;;;14.34;84.41;100012.73;105026;1284;24367;-74
2022/08/01 04:14:49;;;;;;;4.40;2.70;;;;;;;14.33;84.53;100009.92;104969;1284;22601;-73
2022/08/01 04:17:17;;;;;;;6.80;2.50;;;;;;;14.38;84.60;100018.45;104922;1285;22554;-73
2022/08/01 04:19:45;;;;;;;4.60;2.50;;;;;;;14.44;84.70;100019.30;104430;1288;22725;-73
2022/08/01 04:22:15;;;;;;;4.30;3.30;;;;;;;14.46;84.28;100017.48;104578;1290;24043;-86
2022/08/01 04:24:49;;;;;;;4.70;2.60;;;;;;;14.45;84.24;100018.95;104879;1287;22553;-73
2022/08/01 04:27:29;;;;;;;5.40;3.10;;;;;;;14.47;84.36;100017.45;104960;1287;22544;-74
2022/08/01 04:30:19;;;;;;;4.40;2.90;;;;;;;14.45;84.25;100017.15;104985;1287;25290;-77
2022/08/01 04:32:48;;;;;;;5.50;2.80;;;;;;;14.51;84.41;100017.52;104788;1287;25282;-74
2022/08/01 04:35:18;;;;;;;4.60;2.80;;;;;;;14.54;84.23;100020.27;105064;1281;23077;-74
2022/08/01 04:38:06;;;;;;;7.50;3.30;;;;;;;14.64;84.44;100024.21;105621;1274;25518;-77
2022/08/01 04:40:36;;;;;;;4.30;3.50;;;;;;;14.72;84.38;100028.20;105917;1275;22561;-75
2022/08/01 04:43:03;;;;;;;4.50;2.80;;;;;;;14.70;83.82;100025.42;105569;1277;22566;-73
2022/08/01 04:45:32;;;;;;;4.80;2.70;;;;;;;14.70;83.82;100030.02;105547;1278;24101;-74
2022/08/01 04:47:59;;;;;;;5.90;2.80;;;;;;;14.72;83.61;100028.54;105584;1278;25348;-73
2022/08/01 04:50:27;;;;;;;5.10;2.70;;;;;;;14.75;83.73;100031.12;105733;1277;24274;-76
2022/08/01 04:52:54;;;;;;;3.10;2.80;;;;;;;14.76;83.53;100028.08;105699;1277;23931;-76
2022/08/01 04:55:21;;;;;;;4.20;2.80;;;;;;;14.78;83.41;100029.06;105735;1277;22522;-78
2022/08/01 04:57:48;;;;;;;3.20;3.00;;;;;;;14.75;83.41;100025.80;105789;1278;23946;-75
2022/08/01 05:00:18;;;;;;;6.70;3.30;;;;;;;14.77;83.33;100030.70;105657;1278;24245;-80
2022/08/01 05:02:46;;;;;;;5.70;3.00;;;;;;;14.78;83.25;100032.44;106038;1276;25376;-81
2022/08/01 05:05:13;;;;;;;4.30;3.20;;;;;;;14.76;83.30;100031.25;105767;1278;25273;-75
2022/08/01 05:07:41;;;;;;;8.30;3.40;;;;;;;14.76;83.27;100033.06;105590;1278;22581;-76
2022/08/01 05:10:11;;;;;;;6.20;3.10;;;;;;;14.71;83.30;100032.14;105671;1277;23662;-79
2022/08/01 05:12:38;;;;;;;9.20;3.40;;;;;;;14.72;83.83;100036.52;105717;1279;22553;-74
2022/08/01 05:15:06;;;;;;;8.30;3.30;;;;;;;14.77;83.76;100038.50;105790;1277;22541;-77
2022/08/01 05:17:44;;;;;;;3.80;3.30;;;;;;;14.80;83.57;100042.15;105881;1278;22539;-76
2022/08/01 05:20:11;;;;;;;3.90;3.60;;;;;;;14.80;83.38;100043.40;106041;1278;22631;-82
2022/08/01 05:22:39;;;;;;;4.30;3.60;;;;;;;14.77;83.24;100050.37;105742;1278;22824;-77
2022/08/01 05:25:06;;;;;;;4.90;3.00;;;;;;;14.78;83.29;100050.36;106008;1275;22735;-74
2022/08/01 05:27:39;;;;;;;5.70;3.50;;;;;;;14.76;83.08;100050.05;106208;1274;25250;-73
2022/08/01 05:30:08;;;;;;;5.80;3.70;;;;;;;14.73;83.12;100048.55;106258;1274;22530;-76
2022/08/01 05:32:36;;;;;;;3.70;3.40;;;;;;;14.75;83.26;100044.06;106249;1274;26597;-78
2022/08/01 05:35:04;;;;;;;6.80;3.30;;;;;;;14.73;82.89;100050.16;105996;1274;22596;-81
2022/08/01 05:37:31;;;;;;;4.70;4.20;;;;;;;14.74;83.15;100049.04;106070;1274;25367;-76
2022/08/01 05:39:57;;;;;;;4.30;3.90;;;;;;;14.78;83.02;100053.71;105957;1274;22543;-72
2022/08/01 05:42:24;;;;;;;3.70;3.40;;;;;;;14.81;82.94;100059.86;106033;1274;25372;-73
2022/08/01 05:44:51;;;;;;;6.50;3.80;;;;;;;14.80;82.85;100057.77;105933;1274;24234;-72
2022/08/01 05:47:19;;;;;;;3.50;3.20;;;;;;;14.81;83.04;100062.17;106039;1274;24313;-73
2022/08/01 05:49:45;;;;;;;4.80;3.60;;;;;;;14.84;82.63;100059.77;105926;1274;22625;-71
2022/08/01 05:52:13;;;;;;;4.90;3.90;;;;;;;14.84;82.71;100058.69;105975;1274;24098;-83
2022/08/01 05:54:40;;;;;;;6.90;3.80;;;;;;;14.90;82.80;100061.16;105948;1275;24282;-71
2022/08/01 05:57:07;;;;;;;8.10;3.90;;;;;;;14.95;82.72;100065.98;105930;1274;25588;-71
2022/08/01 05:59:34;;;;;;;10.30;3.60;;;;;;;14.99;82.55;100064.78;105970;1274;22544;-70
2022/08/01 06:02:01;;;;;;;4.10;3.30;;;;;;;15.02;82.32;100068.58;105956;1275;22528;-71
2022/08/01 06:04:28;;;;;;;4.50;3.10;;;;;;;15.05;82.39;100066.34;105992;1275;24408;-72
2022/08/01 06:06:55;;;;;;;7.60;3.70;;;;;;;15.11;82.29;100065.25;105940;1274;24309;-71
2022/08/01 06:09:21;;;;;;;7.50;3.50;;;;;;;15.19;82.40;100071.38;106083;1274;25394;-72
2022/08/01 06:11:48;;;;;;;6.30;3.20;;;;;;;15.26;82.30;100069.94;105980;1274;23056;-70
2022/08/01 06:14:15;;;;;;;10.10;3.60;;;;;;;15.29;82.07;100067.50;106043;1273;22721;-81
2022/08/01 06:16:42;;;;;;;7.30;3.30;;;;;;;15.37;82.26;100070.43;105953;1274;22556;-75
2022/08/01 06:19:09;;;;;;;7.30;3.00;;;;;;;15.44;82.04;100069.31;105785;1277;24265;-69
2022/08/01 06:21:35;;;;;;;12.00;4.30;;;;;;;15.48;81.69;100065.45;105710;1278;24416;-69
2022/08/01 06:24:03;;;;;;;13.50;4.70;;;;;;;15.51;81.88;100060.73;105603;1277;24307;-72
2022/08/01 06:26:31;;;;;;;12.70;5.60;;;;;;;15.61;81.58;100066.95;105666;1277;25352;-71
2022/08/01 06:28:58;;;;;;;14.10;5.90;;;;;;;15.66;81.33;100067.84;105690;1277;25591;-71
2022/08/01 06:31:24;;;;;;;12.50;5.60;;;;;;;15.72;81.66;100060.89;105747;1277;24559;-73
2022/08/01 06:33:57;;;;;;;20.60;7.60;;;;;;;15.81;81.42;100066.05;105226;1282;25263;-71
2022/08/01 06:36:25;;;;;;;18.70;10.00;;;;;;;15.89;80.80;100066.52;104684;1287;25325;-73
2022/08/01 06:38:52;;;;;;;24.10;10.50;;;;;;;15.92;80.71;100069.42;104858;1287;22681;-69
2022/08/01 06:41:19;;;;;;;21.20;10.30;;;;;;;15.99;80.65;100071.14;104520;1287;483375;-82
2022/08/01 06:43:46;;;;;;;16.10;8.70;;;;;;;16.05;80.46;100077.31;104345;1290;24454;-71
2022/08/01 06:46:12;;;;;;;17.80;8.00;;;;;;;16.11;79.97;100076.21;104239;1290;22550;-71
2022/08/01 06:48:39;;;;;;;19.60;6.50;;;;;;;16.17;80.06;100072.98;104499;1287;25419;-70
2022/08/01 06:51:11;;;;;;;23.00;6.80;;;;;;;16.26;79.83;100073.71;104504;1288;22745;-71
2022/08/01 06:53:38;;;;;;;11.60;4.60;;;;;;;16.31;79.64;100072.96;105127;1284;25288;-69
2022/08/01 06:56:08;;;;;;;14.00;5.50;;;;;;;16.35;79.61;100071.77;105578;1277;25293;-69
2022/08/01 06:58:35;;;;;;;16.00;4.90;;;;;;;16.44;79.66;100070.89;105654;1277;24682;-70
2022/08/01 07:01:07;;;;;;;11.60;4.80;;;;;;;16.48;79.31;100069.67;105534;1278;22696;-71
2022/08/01 07:03:35;;;;;;;14.70;4.10;;;;;;;16.55;79.13;100070.48;106021;1273;22529;-71
2022/08/01 07:06:25;;;;;;;10.30;4.90;;;;;;;16.62;79.15;100066.65;106061;1274;26504;-84
2022/08/01 07:08:53;;;;;;;10.60;4.10;;;;;;;16.69;78.89;100065.45;105994;1274;22565;-74
2022/08/01 07:11:22;;;;;;;12.00;4.30;;;;;;;16.79;78.96;100060.98;105817;1276;22531;-82
2022/08/01 07:13:48;;;;;;;27.00;6.40;;;;;;;16.90;78.85;100065.70;105959;1274;25442;-72
2022/08/01 07:16:16;;;;;;;10.30;6.50;;;;;;;16.97;77.97;100066.48;105809;1273;22547;-70
2022/08/01 07:18:43;;;;;;;14.80;6.80;;;;;;;17.00;77.50;100062.83;106078;1273;25700;-69
2022/08/01 07:21:10;;;;;;;12.40;7.00;;;;;;;17.08;77.18;100063.59;106060;1273;24227;-70
2022/08/01 07:23:57;;;;;;;18.00;6.10;;;;;;;17.16;76.99;100064.52;106091;1273;25369;-77
2022/08/01 07:26:27;;;;;;;8.70;4.50;;;;;;;17.25;76.90;100067.35;106124;1273;23134;-73
2022/08/01 07:28:54;;;;;;;8.60;4.50;;;;;;;17.31;76.46;100057.86;106126;1273;22577;-73
2022/08/01 07:31:22;;;;;;;8.40;4.00;;;;;;;17.44;76.44;100063.51;106045;1273;22518;-83
2022/08/01 07:33:50;;;;;;;6.80;3.60;;;;;;;17.53;75.82;100055.64;106058;1273;22531;-75
2022/08/01 07:36:17;;;;;;;8.70;3.70;;;;;;;17.63;75.23;100054.15;105732;1277;24449;-73
2022/08/01 07:38:45;;;;;;;8.20;4.70;;;;;;;17.71;74.60;100053.81;105187;1282;25165;-73
2022/08/01 07:41:12;;;;;;;9.70;4.30;;;;;;;17.78;74.12;100054.40;105156;1282;25542;-73
2022/08/01 07:43:39;;;;;;;16.70;5.70;;;;;;;17.80;73.14;100052.34;105492;1281;22610;-72
2022/08/01 07:46:11;;;;;;;8.20;4.00;;;;;;;17.89;73.63;100056.56;105423;1281;25179;-76
2022/08/01 07:48:37;;;;;;;7.20;2.60;;;;;;;17.96;73.58;100058.05;105329;1281;24401;-73
2022/08/01 07:51:04;;;;;;;6.40;2.30;;;;;;;18.01;73.48;100052.11;105114;1282;22560;-71
2022/08/01 07:53:31;;;;;;;7.20;2.40;;;;;;;18.08;72.99;100050.71;105312;1282;25908;-72
2022/08/01 07:55:59;;;;;;;4.10;2.00;;;;;;;18.16;73.17;100051.83;105558;1279;25326;-73
2022/08/01 07:58:26;;;;;;;4.50;2.00;;;;;;;18.27;72.33;100052.03;106023;1273;22726;-85
2022/08/01 08:00:53;;;;;;;4.10;2.40;;;;;;;18.40;71.49;100053.06;105959;1274;23156;-73
2022/08/01 08:03:20;;;;;;;6.30;2.30;;;;;;;18.51;70.51;100051.27;105983;1274;22608;-70
2022/08/01 08:05:47;;;;;;;4.90;1.70;;;;;;;18.58;70.50;100050.23;105883;1273;22554;-72
2022/08/01 08:08:26;;;;;;;6.90;3.10;;;;;;;18.66;70.27;100050.55;106017;1274;26833;-76
2022/08/01 08:10:53;;;;;;;3.40;2.60;;;;;;;18.75;69.19;100048.86;105984;1273;25554;-72
2022/08/01 08:13:20;;;;;;;3.30;2.10;;;;;;;18.82;68.46;100049.44;105853;1274;24213;-73
2022/08/01 08:15:47;;;;;;;5.10;2.40;;;;;;;18.88;68.00;100055.20;105901;1273;22538;-71
2022/08/01 08:18:15;;;;;;;3.90;2.00;;;;;;;18.96;68.26;100059.64;105952;1274;22534;-69
2022/08/01 08:20:42;;;;;;;6.10;1.70;;;;;;;19.04;67.89;100058.88;106082;1273;22561;-72
2022/08/01 08:26:10;;;;;;;4.40;2.50;;;;;;;19.17;66.96;100060.44;105961;1273;22564;-72
2022/08/01 08:28:37;;;;;;;4.30;2.50;;;;;;;19.24;66.65;100064.91;105918;1275;23221;-71
2022/08/01 08:31:07;;;;;;;5.00;2.10;;;;;;;19.32;66.46;100064.67;105916;1274;22545;-72
2022/08/01 08:33:54;;;;;;;4.00;1.80;;;;;;;19.41;66.09;100057.08;106033;1273;22559;-72
2022/08/01 08:36:21;;;;;;;2.80;1.60;;;;;;;19.48;66.33;100059.60;105916;1274;22553;-72
2022/08/01 08:39:00;;;;;;;2.70;1.60;;;;;;;19.63;65.96;100063.84;105934;1273;25228;-71
2022/08/01 08:41:30;;;;;;;3.00;1.50;;;;;;;19.72;64.30;100072.29;105994;1273;22660;-86
2022/08/01 08:44:07;;;;;;;2.30;1.70;;;;;;;19.83;63.38;100070.09;106031;1273;25428;-72
2022/08/01 08:46:44;;;;;;;3.90;1.70;;;;;;;19.93;63.41;100072.25;105935;1275;25441;-71
2022/08/01 08:49:15;;;;;;;5.50;2.10;;;;;;;20.04;63.78;100076.87;105924;1274;22527;-73
2022/08/01 08:51:43;;;;;;;2.70;1.60;;;;;;;20.07;63.52;100076.75;105928;1274;22696;-72
2022/08/01 08:54:15;;;;;;;0.90;0.90;;;;;;;20.10;62.92;100080.36;106037;1274;22560;-69
2022/08/01 08:56:43;;;;;;;3.70;1.70;;;;;;;20.15;61.47;100080.94;105999;1274;24279;-74
2022/08/01 08:59:15;;;;;;;5.30;1.40;;;;;;;20.22;61.77;100083.27;105836;1276;22605;-73
2022/08/01 09:01:43;;;;;;;1.70;1.20;;;;;;;20.30;61.25;100076.92;106012;1274;25258;-70
2022/08/01 09:04:11;;;;;;;5.30;1.40;;;;;;;20.41;61.49;100074.55;105878;1275;24406;-73
2022/08/01 09:06:39;;;;;;;1.40;1.20;;;;;;;20.55;61.80;100080.38;105969;1274;26523;-73
2022/08/01 09:09:07;;;;;;;3.30;1.40;;;;;;;20.68;61.61;100085.04;105994;1274;25250;-74
2022/08/01 09:11:35;;;;;;;1.20;1.10;;;;;;;20.73;61.21;100084.92;106085;1274;22590;-72
2022/08/01 09:14:11;;;;;;;5.60;1.30;;;;;;;20.77;61.41;100081.48;105921;1275;22844;-73
2022/08/01 09:16:43;;;;;;;4.80;1.80;;;;;;;20.92;61.33;100080.48;105970;1275;22588;-73
2022/08/01 09:19:20;;;;;;;3.10;1.60;;;;;;;21.08;61.29;100088.86;105782;1275;23970;-73
2022/08/01 09:22:13;;;;;;;1.40;1.10;;;;;;;21.13;59.54;100087.38;105931;1274;25243;-76
2022/08/01 09:24:41;;;;;;;1.40;1.10;;;;;;;21.16;59.65;100085.92;105999;1274;24274;-78
2022/08/01 09:27:19;;;;;;;5.40;1.70;;;;;;;21.21;59.90;100088.87;106004;1274;22531;-75
2022/08/01 09:29:48;;;;;;;1.60;1.40;;;;;;;21.36;59.56;100092.33;106033;1273;24267;-72
2022/08/01 09:32:30;;;;;;;5.20;1.60;;;;;;;21.43;58.46;100094.73;105771;1275;24208;-73
2022/08/01 09:35:23;;;;;;;2.80;1.60;;;;;;;21.57;58.61;100098.95;105947;1274;25521;-72
2022/08/01 09:38:23;;;;;;;2.20;1.30;;;;;;;21.77;58.48;100099.02;105938;1274;26557;-77
2022/08/01 09:40:52;;;;;;;2.20;1.60;;;;;;;21.94;58.01;100093.51;106016;1274;22539;-75
2022/08/01 09:43:20;;;;;;;2.10;1.40;;;;;;;22.09;58.22;100092.97;106151;1274;22722;-74
2022/08/01 09:45:47;;;;;;;2.40;1.40;;;;;;;22.13;57.84;100090.56;106163;1274;22552;-71
2022/08/01 09:48:20;;;;;;;2.30;1.40;;;;;;;22.08;57.66;100091.45;106003;1273;22556;-74
2022/08/01 09:50:57;;;;;;;3.40;1.40;;;;;;;22.08;57.43;100090.69;106033;1273;25440;-74
2022/08/01 09:53:44;;;;;;;4.00;1.20;;;;;;;22.07;56.28;100082.12;106054;1273;25356;-74
2022/08/01 09:56:17;;;;;;;1.40;1.30;;;;;;;22.26;57.05;100092.29;105848;1278;24402;-74
2022/08/01 09:58:54;;;;;;;3.20;1.30;;;;;;;22.44;56.83;100089.15;106676;1278;25631;-73
2022/08/01 10:01:28;;;;;;;5.30;1.60;;;;;;;22.66;57.01;100088.73;105889;1279;22587;-74
2022/08/01 10:04:11;;;;;;;3.70;3.20;;;;;;;22.82;55.51;100084.84;106072;1279;25272;-73
2022/08/01 10:06:43;;;;;;;6.60;1.80;;;;;;;22.81;55.84;100089.53;106036;1277;24309;-74
2022/08/01 10:09:13;;;;;;;3.80;1.30;;;;;;;22.92;55.32;100089.56;105779;1277;23985;-77
2022/08/01 10:11:43;;;;;;;3.40;1.30;;;;;;;22.98;54.43;100098.14;105721;1277;25335;-74
2022/08/01 10:14:14;;;;;;;1.30;1.20;;;;;;;22.98;54.07;100090.73;105870;1273;24660;-73
2022/08/01 10:16:46;;;;;;;3.40;1.20;;;;;;;23.01;53.38;100088.58;106099;1273;22570;-70
2022/08/01 10:19:21;;;;;;;;;;;;;;;23.04;53.15;100085.17;106009;1273;22692;-72
2022/08/01 10:21:53;;;;;;;3.70;1.60;;;;;;;23.11;54.18;100085.10;106204;1273;22554;-72
2022/08/01 10:24:28;;;;;;;3.70;1.70;;;;;;;23.39;54.32;100085.94;105972;1273;23938;-74
2022/08/01 10:27:02;;;;;;;2.60;1.60;;;;;;;23.55;54.14;100086.98;106132;1273;22558;-74
2022/08/01 10:29:55;;;;;;;2.60;1.50;;;;;;;23.66;52.15;100088.42;105997;1273;25238;-74
2022/08/01 10:32:35;;;;;;;2.30;1.30;;;;;;;23.64;52.08;100083.52;105939;1273;25258;-74
2022/08/01 10:35:06;;;;;;;4.30;1.50;;;;;;;23.77;52.63;100084.42;105921;1273;22691;-77
2022/08/01 10:37:41;;;;;;;;;;;;;;;23.96;52.03;100079.14;105995;1273;25503;-74
2022/08/01 10:40:20;;;;;;;3.00;1.40;;;;;;;24.12;51.67;100073.60;105950;1275;22531;-73
2022/08/01 10:43:02;;;;;;;2.10;1.10;;;;;;;24.26;51.10;100079.99;106035;1273;22621;-73
2022/08/01 10:45:30;;;;;;;1.50;1.10;;;;;;;24.35;50.65;100082.00;106062;1273;24243;-70
2022/08/01 10:48:09;;;;;;;2.60;1.10;;;;;;;24.47;49.42;100083.86;106090;1273;26510;-70
2022/08/01 10:50:45;;;;;;;3.40;1.40;;;;;;;24.63;49.21;100077.86;106036;1273;22540;-75
2022/08/01 10:53:19;;;;;;;1.30;1.10;;;;;;;24.75;48.26;100075.57;105836;1275;22573;-70
2022/08/01 10:55:56;;;;;;;2.10;1.40;;;;;;;24.71;47.47;100074.55;106056;1274;24847;-73
2022/08/01 10:58:36;;;;;;;1.70;1.20;;;;;;;24.58;47.61;100074.45;106001;1273;25251;-71
2022/08/01 11:01:45;;;;;;;5.40;1.40;;;;;;;24.56;48.58;100075.88;105861;1276;22540;-69
2022/08/01 11:04:14;;;;;;;2.50;1.30;;;;;;;24.65;49.20;100077.02;105793;1275;24553;-72
2022/08/01 11:06:50;;;;;;;2.00;1.20;;;;;;;24.85;48.80;100076.83;106096;1273;22540;-73
2022/08/01 11:09:24;;;;;;;3.90;1.20;;;;;;;25.01;48.57;100079.28;106492;1273;25138;-70
2022/08/01 11:12:08;;;;;;;1.90;1.20;;;;;;;25.05;47.75;100078.57;106209;1273;22560;-74
2022/08/01 11:14:57;;;;;;;2.50;1.20;;;;;;;25.00;47.64;100070.29;105991;1273;22534;-73
2022/08/01 11:17:39;;;;;;;1.40;1.30;;;;;;;25.14;47.61;100070.17;105962;1273;25421;-74
2022/08/01 11:20:20;;;;;;;2.80;1.40;;;;;;;25.25;46.95;100068.99;106090;1273;22851;-73
2022/08/01 11:23:01;;;;;;;3.10;1.70;;;;;;;25.30;46.91;100067.02;106168;1273;25307;-73
2022/08/01 11:25:35;;;;;;;1.60;1.30;;;;;;;25.46;46.81;100072.09;106041;1273;22577;-72
2022/08/01 11:28:25;;;;;;;3.20;1.30;;;;;;;25.64;46.13;100072.38;105991;1273;25436;-71
2022/08/01 11:31:06;;;;;;;1.20;1.10;;;;;;;25.75;45.88;100073.71;105988;1273;22544;-75
2022/08/01 11:33:44;;;;;;;3.70;1.10;;;;;;;25.87;45.69;100068.47;106044;1273;22552;-73
2022/08/01 11:36:12;;;;;;;8.40;3.10;;;;;;;25.88;45.80;100069.48;106052;1273;22540;-75
2022/08/01 11:38:46;;;;;;;2.40;1.10;;;;;;;25.92;45.57;100072.38;105908;1273;25252;-76
2022/08/01 11:41:17;;;;;;;1.10;1.00;;;;;;;25.93;45.02;100071.34;106013;1273;24298;-74
2022/08/01 11:43:57;;;;;;;2.00;1.10;;;;;;;25.94;44.68;100068.04;106085;1273;22584;-74
2022/08/01 11:46:59;;;;;;;3.40;1.20;;;;;;;26.03;44.87;100071.54;106038;1272;25326;-73